CheckWX is a tool to help pilots better visualize weather data.  It is not intended as a substitute for an official pre-flight weather briefing.

12:18:59 UTC

KDAA METAR
Davison AAF Airport
Fort Belvoir, Virginia, USA
Current

23 mins ago

KDAA 181156Z AUTO 00000KT 10SM BKN180 03/02 A2986 RMK AO2 SLP115 60020 70048 T00340022 10038 20027 52029 $
Observed
Feb-18 @ 11:56 UTC
Visibility
10 SM
Flight Rules
VFR
Cloud Levels
  • Broken at 18,000' AGL
Temperature
C / 37°F
Dewpoint
C / 36°F
Humidity
93%
Altimeter
29.86" Hg
Pressure
1011.5 hPa
Previous

1 hour ago

KDAA 181101Z AUTO 00000KT 10SM FEW007 FEW140 04/03 A2982 RMK AO2 SLP102 $
Observed
Feb-18 @ 11:01 UTC
Visibility
10 SM
Flight Rules
VFR
Cloud Levels
  • Few at 700' AGL
  • Few at 14,000' AGL
Temperature
C / 39°F
Dewpoint
C / 37°F
Humidity
93%
Altimeter
29.82" Hg
Pressure
1010.2 hPa
Previous

1 hour ago

KDAA 181056Z AUTO 00000KT 10SM FEW011 SCT041 SCT140 04/03 A2983 RMK AO2 RAE53DZB53E54 SLP105 P0001 T00370025 $
Observed
Feb-18 @ 10:56 UTC
Visibility
10 SM
Flight Rules
VFR
Cloud Levels
  • Few at 1,100' AGL
  • Scattered at 4,100' AGL
  • Scattered at 14,000' AGL
Temperature
C / 39°F
Dewpoint
C / 37°F
Humidity
93%
Altimeter
29.83" Hg
Pressure
1010.5 hPa
Current Rain
0.01"